PWSweather.com
Personal Weather Stations
Station Observations
UPSTATEWEATHER
Silver Leaf, Greer, SC 29650

Silver LeafGreer, SC 29650

Lat: 34.8955792, Lon: -82.2868211

Elevation: 875

Station Type: Davis Vantage Vue

https://www.upstateweather.com

High Low Average
Temperature 93.1°F33.9°C 68.2°F20.1°C 80.4°F26.9°C
Dew Point 73.7°F23.2°C 64.5°F18.1°C 69.6°F20.9°C
Winds 1.2 mph 1.9 kmh Calm Calm Calm NCalm N
Wind Gusts 2.3 mph3.7 kmh -- --
Humidity 94% 40% 72%
Pressure 30.16 in1021.3 mb 30.04 in1017.3 mb -
Precipitation 0.00 in0.0 mm - -
Hour Temp Dew Point Humidity Winds Wind Gusts Pressure Precip Precip Rate Daily Precip Total
12:00 AM 74.6°F23.7°C 70.5°F21.4°C 87% Calm Calm -- 30.13 in1020.3 mb - 0.00 in0.0 mm 0.00 in0.0 mm
12:15 AM 74.4°F23.6°C 70.6°F21.4°C 88% Calm Calm -- 30.12 in1020.0 mb - 0.00 in0.0 mm 0.00 in0.0 mm
12:30 AM 74.1°F23.4°C 70.6°F21.4°C 89% Calm Calm -- 30.12 in1020.0 mb - 0.00 in0.0 mm 0.00 in0.0 mm
12:45 AM 73.6°F23.1°C 70.5°F21.4°C 90% Calm Calm -- 30.12 in1020.0 mb - 0.00 in0.0 mm 0.00 in0.0 mm
01:00 AM 73.2°F22.9°C 70.1°F21.2°C 90% Calm Calm -- 30.12 in1020.0 mb - 0.00 in0.0 mm 0.00 in0.0 mm
01:15 AM 72.9°F22.7°C 70.1°F21.2°C 91% Calm Calm -- 30.12 in1020.0 mb - 0.00 in0.0 mm 0.00 in0.0 mm
01:30 AM 72.6°F22.6°C 69.8°F21.0°C 91% Calm Calm -- 30.11 in1019.6 mb - 0.00 in0.0 mm 0.00 in0.0 mm
01:45 AM 72.2°F22.3°C 69.4°F20.8°C 91% Calm Calm -- 30.11 in1019.6 mb - 0.00 in0.0 mm 0.00 in0.0 mm
02:00 AM 72.1°F22.3°C 69.3°F20.7°C 91% Calm Calm -- 30.10 in1019.3 mb - 0.00 in0.0 mm 0.00 in0.0 mm
02:15 AM 71.8°F22.1°C 69.0°F20.6°C 91% Calm Calm -- 30.10 in1019.3 mb - 0.00 in0.0 mm 0.00 in0.0 mm
02:30 AM 71.4°F21.9°C 69.0°F20.6°C 92% Calm Calm -- 30.10 in1019.3 mb - 0.00 in0.0 mm 0.00 in0.0 mm
02:45 AM 71.1°F21.7°C 68.7°F20.4°C 92% Calm Calm -- 30.10 in1019.3 mb - 0.00 in0.0 mm 0.00 in0.0 mm
03:00 AM 71.0°F21.7°C 68.6°F20.3°C 92% Calm Calm -- 30.10 in1019.3 mb - 0.00 in0.0 mm 0.00 in0.0 mm
03:15 AM 71.1°F21.7°C 68.7°F20.4°C 92% Calm Calm -- 30.10 in1019.3 mb - 0.00 in0.0 mm 0.00 in0.0 mm
03:30 AM 71.1°F21.7°C 68.3°F20.2°C 91% Calm Calm -- 30.09 in1019.0 mb - 0.00 in0.0 mm 0.00 in0.0 mm
03:45 AM 70.9°F21.6°C 68.5°F20.3°C 92% Calm Calm -- 30.10 in1019.3 mb - 0.00 in0.0 mm 0.00 in0.0 mm
04:00 AM 70.5°F21.4°C 68.1°F20.1°C 92% Calm Calm -- 30.10 in1019.3 mb - 0.00 in0.0 mm 0.00 in0.0 mm
04:15 AM 69.9°F21.1°C 67.8°F19.9°C 93% Calm Calm -- 30.10 in1019.3 mb - 0.00 in0.0 mm 0.00 in0.0 mm
04:30 AM 69.6°F20.9°C 67.5°F19.7°C 93% Calm Calm -- 30.11 in1019.6 mb - 0.00 in0.0 mm 0.00 in0.0 mm
04:45 AM 69.4°F20.8°C 67.3°F19.6°C 93% Calm Calm -- 30.11 in1019.6 mb - 0.00 in0.0 mm 0.00 in0.0 mm
05:00 AM 69.3°F20.7°C 67.2°F19.6°C 93% Calm Calm -- 30.11 in1019.6 mb - 0.00 in0.0 mm 0.00 in0.0 mm
05:15 AM 69.2°F20.7°C 67.1°F19.5°C 93% Calm Calm -- 30.12 in1020.0 mb - 0.00 in0.0 mm 0.00 in0.0 mm
05:30 AM 69.0°F20.6°C 66.9°F19.4°C 93% Calm Calm -- 30.12 in1020.0 mb - 0.00 in0.0 mm 0.00 in0.0 mm
05:45 AM 68.7°F20.4°C 66.9°F19.4°C 94% Calm Calm -- 30.12 in1020.0 mb - 0.00 in0.0 mm 0.00 in0.0 mm
06:00 AM 68.4°F20.2°C 66.6°F19.2°C 94% Calm Calm -- 30.13 in1020.3 mb - 0.00 in0.0 mm 0.00 in0.0 mm
06:15 AM 68.2°F20.1°C 66.4°F19.1°C 94% Calm Calm -- 30.13 in1020.3 mb - 0.00 in0.0 mm 0.00 in0.0 mm
06:30 AM 68.2°F20.1°C 66.5°F19.2°C 94% Calm Calm -- 30.14 in1020.7 mb - 0.00 in0.0 mm 0.00 in0.0 mm
06:45 AM 68.2°F20.1°C 66.4°F19.1°C 94% Calm Calm -- 30.14 in1020.7 mb - 0.00 in0.0 mm 0.00 in0.0 mm
07:00 AM 68.5°F20.3°C 66.7°F19.3°C 94% Calm Calm -- 30.15 in1021.0 mb - 0.00 in0.0 mm 0.00 in0.0 mm
07:15 AM 68.9°F20.5°C 67.1°F19.5°C 94% Calm Calm -- 30.15 in1021.0 mb - 0.00 in0.0 mm 0.00 in0.0 mm
07:30 AM 69.6°F20.9°C 67.8°F19.9°C 94% Calm Calm -- 30.15 in1021.0 mb - 0.00 in0.0 mm 0.00 in0.0 mm
07:45 AM 70.9°F21.6°C 68.7°F20.4°C 93% Calm Calm -- 30.15 in1021.0 mb - 0.00 in0.0 mm 0.00 in0.0 mm
08:00 AM 72.1°F22.3°C 69.6°F20.9°C 92% Calm Calm -- 30.16 in1021.3 mb - 0.00 in0.0 mm 0.00 in0.0 mm
08:15 AM 73.6°F23.1°C 70.8°F21.6°C 91% Calm Calm -- 30.16 in1021.3 mb - 0.00 in0.0 mm 0.00 in0.0 mm
08:30 AM 75.1°F23.9°C 71.6°F22.0°C 89% Calm Calm -- 30.16 in1021.3 mb - 0.00 in0.0 mm 0.00 in0.0 mm
08:45 AM 76.5°F24.7°C 72.6°F22.6°C 88% Calm Calm -- 30.16 in1021.3 mb - 0.00 in0.0 mm 0.00 in0.0 mm
09:00 AM 77.9°F25.5°C 72.0°F22.2°C 82% Calm Calm -- 30.16 in1021.3 mb - 0.00 in0.0 mm 0.00 in0.0 mm
09:15 AM 79.7°F26.5°C 72.9°F22.7°C 80% Calm Calm -- 30.16 in1021.3 mb - 0.00 in0.0 mm 0.00 in0.0 mm
09:30 AM 81.4°F27.4°C 73.1°F22.8°C 76% Calm Calm 1.2 mph1.9 kmh 30.16 in1021.3 mb - 0.00 in0.0 mm 0.00 in0.0 mm
09:45 AM 82.5°F28.1°C 72.6°F22.6°C 72% Calm Calm -- 30.15 in1021.0 mb - 0.00 in0.0 mm 0.00 in0.0 mm
10:00 AM 84.1°F28.9°C 73.7°F23.2°C 71% Calm Calm -- 30.15 in1021.0 mb - 0.00 in0.0 mm 0.00 in0.0 mm
10:15 AM 85.2°F29.6°C 73.0°F22.8°C 67% Calm Calm 1.2 mph1.9 kmh 30.15 in1021.0 mb - 0.00 in0.0 mm 0.00 in0.0 mm
10:30 AM 86.3°F30.2°C 73.1°F22.8°C 65% Calm Calm -- 30.15 in1021.0 mb - 0.00 in0.0 mm 0.00 in0.0 mm
10:45 AM 86.9°F30.5°C 72.8°F22.7°C 63% Calm Calm 2.3 mph3.7 kmh 30.14 in1020.7 mb - 0.00 in0.0 mm 0.00 in0.0 mm
11:00 AM 87.8°F31.0°C 73.6°F23.1°C 63% Calm Calm 1.2 mph1.9 kmh 30.14 in1020.7 mb - 0.00 in0.0 mm 0.00 in0.0 mm
11:15 AM 88.8°F31.6°C 72.1°F22.3°C 58% 1.2 mph N1.9 kmh N 1.2 mph1.9 kmh 30.14 in1020.7 mb - 0.00 in0.0 mm 0.00 in0.0 mm
11:30 AM 89.5°F31.9°C 71.2°F21.8°C 55% 1.2 mph N1.9 kmh N 2.3 mph3.7 kmh 30.13 in1020.3 mb - 0.00 in0.0 mm 0.00 in0.0 mm
11:45 AM 90.2°F32.3°C 69.6°F20.9°C 51% 1.2 mph N1.9 kmh N 2.3 mph3.7 kmh 30.13 in1020.3 mb - 0.00 in0.0 mm 0.00 in0.0 mm
12:00 PM 90.2°F32.3°C 69.0°F20.6°C 50% 1.2 mph N1.9 kmh N 2.3 mph3.7 kmh 30.13 in1020.3 mb - 0.00 in0.0 mm 0.00 in0.0 mm
12:15 PM 90.8°F32.7°C 71.3°F21.8°C 53% Calm Calm 1.2 mph1.9 kmh 30.12 in1020.0 mb - 0.00 in0.0 mm 0.00 in0.0 mm
12:30 PM 91.3°F32.9°C 70.7°F21.5°C 51% Calm Calm 1.2 mph1.9 kmh 30.12 in1020.0 mb - 0.00 in0.0 mm 0.00 in0.0 mm
12:45 PM 92.1°F33.4°C 70.8°F21.6°C 50% Calm Calm 1.2 mph1.9 kmh 30.11 in1019.6 mb - 0.00 in0.0 mm 0.00 in0.0 mm
01:00 PM 92.3°F33.5°C 70.4°F21.3°C 49% Calm Calm -- 30.10 in1019.3 mb - 0.00 in0.0 mm 0.00 in0.0 mm
01:15 PM 92.0°F33.3°C 69.5°F20.8°C 48% Calm Calm 1.2 mph1.9 kmh 30.10 in1019.3 mb - 0.00 in0.0 mm 0.00 in0.0 mm
01:30 PM 91.9°F33.3°C 68.8°F20.4°C 47% Calm Calm -- 30.09 in1019.0 mb - 0.00 in0.0 mm 0.00 in0.0 mm
01:45 PM 92.4°F33.6°C 69.9°F21.1°C 48% Calm Calm 1.2 mph1.9 kmh 30.09 in1019.0 mb - 0.00 in0.0 mm 0.00 in0.0 mm
02:00 PM 92.6°F33.7°C 68.2°F20.1°C 45% Calm Calm -- 30.08 in1018.6 mb - 0.00 in0.0 mm 0.00 in0.0 mm
02:15 PM 92.2°F33.4°C 69.1°F20.6°C 47% Calm Calm 1.2 mph1.9 kmh 30.07 in1018.3 mb - 0.00 in0.0 mm 0.00 in0.0 mm
02:30 PM 91.8°F33.2°C 67.4°F19.7°C 45% 1.2 mph N1.9 kmh N 2.3 mph3.7 kmh 30.07 in1018.3 mb - 0.00 in0.0 mm 0.00 in0.0 mm
02:45 PM 92.3°F33.5°C 64.5°F18.1°C 40% Calm Calm 1.2 mph1.9 kmh 30.07 in1018.3 mb - 0.00 in0.0 mm 0.00 in0.0 mm
03:00 PM 91.9°F33.3°C 66.2°F19.0°C 43% Calm Calm -- 30.06 in1017.9 mb - 0.00 in0.0 mm 0.00 in0.0 mm
03:15 PM 91.9°F33.3°C 66.8°F19.3°C 44% Calm Calm -- 30.06 in1017.9 mb - 0.00 in0.0 mm 0.00 in0.0 mm
03:30 PM 91.3°F32.9°C 67.6°F19.8°C 46% Calm Calm -- 30.06 in1017.9 mb - 0.00 in0.0 mm 0.00 in0.0 mm
03:45 PM 93.1°F33.9°C 65.9°F18.8°C 41% Calm Calm -- 30.05 in1017.6 mb - 0.00 in0.0 mm 0.00 in0.0 mm
04:00 PM 92.4°F33.6°C 65.3°F18.5°C 41% Calm Calm -- 30.05 in1017.6 mb - 0.00 in0.0 mm 0.00 in0.0 mm
04:15 PM 91.5°F33.1°C 68.4°F20.2°C 47% Calm Calm -- 30.04 in1017.3 mb - 0.00 in0.0 mm 0.00 in0.0 mm
04:30 PM 91.2°F32.9°C 67.5°F19.7°C 46% Calm Calm -- 30.04 in1017.3 mb - 0.00 in0.0 mm 0.00 in0.0 mm
04:45 PM 90.7°F32.6°C 70.1°F21.2°C 51% Calm Calm -- 30.04 in1017.3 mb - 0.00 in0.0 mm 0.00 in0.0 mm
05:00 PM 90.4°F32.4°C 68.6°F20.3°C 49% Calm Calm -- 30.04 in1017.3 mb - 0.00 in0.0 mm 0.00 in0.0 mm
05:15 PM 90.0°F32.2°C 70.0°F21.1°C 52% Calm Calm -- 30.04 in1017.3 mb - 0.00 in0.0 mm 0.00 in0.0 mm
05:30 PM 89.1°F31.7°C 69.2°F20.7°C 52% Calm Calm -- 30.05 in1017.6 mb - 0.00 in0.0 mm 0.00 in0.0 mm
05:45 PM 88.5°F31.4°C 68.6°F20.3°C 52% Calm Calm -- 30.05 in1017.6 mb - 0.00 in0.0 mm 0.00 in0.0 mm
06:00 PM 88.0°F31.1°C 69.8°F21.0°C 55% Calm Calm -- 30.05 in1017.6 mb - 0.00 in0.0 mm 0.00 in0.0 mm
06:15 PM 87.2°F30.7°C 70.7°F21.5°C 58% Calm Calm -- 30.05 in1017.6 mb - 0.00 in0.0 mm 0.00 in0.0 mm
06:30 PM 86.5°F30.3°C 71.9°F22.2°C 62% Calm Calm -- 30.05 in1017.6 mb - 0.00 in0.0 mm 0.00 in0.0 mm
06:45 PM 85.4°F29.7°C 69.9°F21.1°C 60% Calm Calm -- 30.06 in1017.9 mb - 0.00 in0.0 mm 0.00 in0.0 mm
07:00 PM 84.5°F29.2°C 69.6°F20.9°C 61% Calm Calm -- 30.06 in1017.9 mb - 0.00 in0.0 mm 0.00 in0.0 mm
07:15 PM 83.8°F28.8°C 68.9°F20.5°C 61% Calm Calm -- 30.06 in1017.9 mb - 0.00 in0.0 mm 0.00 in0.0 mm
07:30 PM 83.4°F28.6°C 70.4°F21.3°C 65% Calm Calm -- 30.07 in1018.3 mb - 0.00 in0.0 mm 0.00 in0.0 mm
07:45 PM 82.7°F28.2°C 70.1°F21.2°C 66% Calm Calm -- 30.07 in1018.3 mb - 0.00 in0.0 mm 0.00 in0.0 mm
08:00 PM 82.0°F27.8°C 70.0°F21.1°C 67% Calm Calm -- 30.07 in1018.3 mb - 0.00 in0.0 mm 0.00 in0.0 mm
08:15 PM 81.1°F27.3°C 70.8°F21.6°C 71% Calm Calm -- 30.08 in1018.6 mb - 0.00 in0.0 mm 0.00 in0.0 mm
08:30 PM 80.5°F26.9°C 71.0°F21.7°C 73% Calm Calm -- 30.08 in1018.6 mb - 0.00 in0.0 mm 0.00 in0.0 mm
08:45 PM 80.3°F26.8°C 70.5°F21.4°C 72% Calm Calm -- 30.08 in1018.6 mb - 0.00 in0.0 mm 0.00 in0.0 mm
09:00 PM 79.9°F26.6°C 70.9°F21.6°C 74% Calm Calm -- 30.08 in1018.6 mb - 0.00 in0.0 mm 0.00 in0.0 mm
09:15 PM 79.2°F26.2°C 70.6°F21.4°C 75% Calm Calm -- 30.09 in1019.0 mb - 0.00 in0.0 mm 0.00 in0.0 mm
09:30 PM 78.3°F25.7°C 70.5°F21.4°C 77% Calm Calm -- 30.09 in1019.0 mb - 0.00 in0.0 mm 0.00 in0.0 mm
09:45 PM 78.3°F25.7°C 70.1°F21.2°C 76% Calm Calm -- 30.09 in1019.0 mb - 0.00 in0.0 mm 0.00 in0.0 mm
10:00 PM 78.6°F25.9°C 70.7°F21.5°C 77% Calm Calm -- 30.09 in1019.0 mb - 0.00 in0.0 mm 0.00 in0.0 mm
10:15 PM 78.5°F25.8°C 71.1°F21.7°C 78% Calm Calm -- 30.09 in1019.0 mb - 0.00 in0.0 mm 0.00 in0.0 mm
10:30 PM 78.4°F25.8°C 70.6°F21.4°C 77% Calm Calm -- 30.09 in1019.0 mb - 0.00 in0.0 mm 0.00 in0.0 mm
10:45 PM 78.3°F25.7°C 71.6°F22.0°C 80% Calm Calm -- 30.09 in1019.0 mb - 0.00 in0.0 mm 0.00 in0.0 mm
11:00 PM 77.7°F25.4°C 71.4°F21.9°C 81% Calm Calm -- 30.09 in1019.0 mb - 0.00 in0.0 mm 0.00 in0.0 mm
11:15 PM 77.7°F25.4°C 71.4°F21.9°C 81% Calm Calm -- 30.09 in1019.0 mb - 0.00 in0.0 mm 0.00 in0.0 mm
11:30 PM 77.2°F25.1°C 71.3°F21.8°C 82% Calm Calm -- 30.09 in1019.0 mb - 0.00 in0.0 mm 0.00 in0.0 mm
11:45 PM 77.1°F25.1°C 71.2°F21.8°C 82% Calm Calm -- 30.09 in1019.0 mb - 0.00 in0.0 mm 0.00 in0.0 mm